createdAt,value
2018-10-21T00:02:26.434Z,8.60
2018-10-21T00:04:56.285Z,8.60
2018-10-21T00:10:17.308Z,8.60
2018-10-21T00:12:47.025Z,8.50
2018-10-21T00:15:17.228Z,8.50
2018-10-21T00:17:46.845Z,8.50
2018-10-21T00:20:17.531Z,8.40
2018-10-21T00:22:47.681Z,8.40
2018-10-21T00:25:16.862Z,8.40
2018-10-21T00:27:46.776Z,8.40
2018-10-21T00:30:17.191Z,8.40
2018-10-21T00:32:51.494Z,8.40
2018-10-21T00:35:20.821Z,8.30
2018-10-21T00:37:51.633Z,8.30
2018-10-21T00:40:22.638Z,8.20
2018-10-21T00:42:52.542Z,8.20
2018-10-21T00:45:22.551Z,8.30
2018-10-21T00:47:51.897Z,8.20
2018-10-21T00:50:21.290Z,8.20
2018-10-21T00:52:51.510Z,8.20
2018-10-21T00:55:21.620Z,8.20
2018-10-21T00:57:52.855Z,8.20
2018-10-21T01:00:23.446Z,8.10
2018-10-21T01:02:52.855Z,8.10
2018-10-21T01:05:22.321Z,8.10
2018-10-21T01:07:51.892Z,8.10
2018-10-21T01:10:21.302Z,8.00
2018-10-21T01:12:51.950Z,8.00
2018-10-21T01:15:21.533Z,8.00
2018-10-21T01:17:51.107Z,8.00
2018-10-21T01:20:23.149Z,7.90
2018-10-21T01:22:53.845Z,7.90
2018-10-21T01:25:26.884Z,7.90
2018-10-21T01:27:57.033Z,7.80
2018-10-21T01:30:26.273Z,7.80
2018-10-21T01:32:55.450Z,7.70
2018-10-21T01:35:25.875Z,7.70
2018-10-21T01:37:56.349Z,7.70
2018-10-21T01:40:47.326Z,7.60
2018-10-21T01:43:22.063Z,7.60
2018-10-21T01:45:51.747Z,7.60
2018-10-21T01:48:22.072Z,7.50
2018-10-21T01:50:51.416Z,7.50
2018-10-21T01:53:51.488Z,7.50
2018-10-21T01:56:20.937Z,7.50
2018-10-21T01:58:50.940Z,7.40
2018-10-21T02:01:21.094Z,7.30
2018-10-21T02:03:50.634Z,7.30
2018-10-21T02:06:20.263Z,7.20
2018-10-21T02:08:52.824Z,7.20
2018-10-21T02:11:22.187Z,7.20
2018-10-21T02:13:53.825Z,7.20
2018-10-21T02:16:23.858Z,7.20
2018-10-21T02:18:54.383Z,7.20
2018-10-21T02:21:24.295Z,7.20
2018-10-21T02:23:54.145Z,7.20
2018-10-21T02:26:25.168Z,7.20
2018-10-21T02:28:56.505Z,7.20
2018-10-21T02:31:26.575Z,7.20
2018-10-21T02:33:56.623Z,7.20
2018-10-21T02:36:26.359Z,7.20
2018-10-21T02:38:55.873Z,7.20
2018-10-21T02:41:44.055Z,7.20
2018-10-21T02:44:16.397Z,7.20
2018-10-21T02:46:46.361Z,7.20
2018-10-21T02:49:16.567Z,7.20
2018-10-21T02:51:51.353Z,7.20
2018-10-21T02:54:23.673Z,7.20
2018-10-21T02:56:53.138Z,7.20
2018-10-21T02:59:22.867Z,7.10
2018-10-21T03:01:52.081Z,7.10
2018-10-21T03:04:21.831Z,7.00
2018-10-21T03:06:51.270Z,7.00
2018-10-21T03:09:20.647Z,7.00
2018-10-21T03:11:49.791Z,6.90
2018-10-21T03:14:19.047Z,6.90
2018-10-21T03:16:48.643Z,6.90
2018-10-21T03:19:18.002Z,6.90
2018-10-21T03:21:47.557Z,6.80
2018-10-21T03:24:17.007Z,6.80
2018-10-21T03:26:47.025Z,6.70
2018-10-21T03:29:16.941Z,6.70
2018-10-21T03:31:46.909Z,6.70
2018-10-21T03:34:16.185Z,6.60
2018-10-21T03:36:45.367Z,6.60
2018-10-21T03:39:15.111Z,6.60
2018-10-21T03:41:44.259Z,6.60
2018-10-21T03:44:13.951Z,6.50
2018-10-21T03:46:43.109Z,6.50
2018-10-21T03:49:12.302Z,6.50
2018-10-21T03:51:41.470Z,6.40
2018-10-21T03:54:10.635Z,6.40
2018-10-21T03:56:39.831Z,6.40
2018-10-21T03:59:09.152Z,6.40
2018-10-21T04:01:39.151Z,6.40
2018-10-21T04:04:08.339Z,6.30
2018-10-21T04:06:37.565Z,6.30
2018-10-21T04:09:07.894Z,6.30
2018-10-21T04:11:38.104Z,6.30
2018-10-21T04:14:08.143Z,6.30
2018-10-21T04:16:37.923Z,6.30
2018-10-21T04:19:07.473Z,6.30
2018-10-21T04:21:38.509Z,6.30
2018-10-21T04:24:09.571Z,6.30
2018-10-21T04:26:38.921Z,6.30
2018-10-21T04:29:10.147Z,6.30
2018-10-21T04:31:39.825Z,6.30
2018-10-21T04:34:10.463Z,6.30
2018-10-21T04:36:40.777Z,6.30
2018-10-21T04:39:24.170Z,6.30
2018-10-21T04:41:53.691Z,6.30
2018-10-21T04:44:22.957Z,6.30
2018-10-21T04:46:52.463Z,6.20
2018-10-21T04:49:21.895Z,6.20
2018-10-21T04:51:52.845Z,6.20
2018-10-21T04:54:22.313Z,6.10
2018-10-21T04:56:52.767Z,6.10
2018-10-21T04:59:22.759Z,6.10
2018-10-21T05:01:52.077Z,6.10
2018-10-21T05:04:21.453Z,6.10
2018-10-21T05:06:51.279Z,6.00
2018-10-21T05:09:22.443Z,6.00
2018-10-21T05:11:52.583Z,6.00
2018-10-21T05:14:23.086Z,5.90
2018-10-21T05:16:52.547Z,5.90
2018-10-21T05:19:21.795Z,5.80
2018-10-21T05:21:51.476Z,5.80
2018-10-21T05:24:21.524Z,5.80
2018-10-21T05:26:51.415Z,5.70
2018-10-21T05:29:21.905Z,5.70
2018-10-21T05:31:51.169Z,5.70
2018-10-21T05:34:20.785Z,5.70
2018-10-21T05:36:50.919Z,5.60
2018-10-21T05:39:20.921Z,5.70
2018-10-21T05:41:52.345Z,5.70
2018-10-21T05:44:22.442Z,5.70
2018-10-21T05:46:52.884Z,5.70
2018-10-21T05:49:22.065Z,5.70
2018-10-21T05:51:58.864Z,5.80
2018-10-21T05:54:32.379Z,5.70
2018-10-21T05:57:03.157Z,5.80
2018-10-21T05:59:32.765Z,5.80
2018-10-21T06:02:04.076Z,5.90
2018-10-21T06:04:34.284Z,5.90
2018-10-21T06:07:09.489Z,5.90
2018-10-21T06:09:39.436Z,6.00
2018-10-21T06:12:09.602Z,5.90
2018-10-21T06:14:40.905Z,6.00
2018-10-21T06:17:18.503Z,6.00
2018-10-21T06:19:51.034Z,6.10
2018-10-21T06:22:23.708Z,6.10
2018-10-21T06:24:53.582Z,6.20
2018-10-21T06:27:23.427Z,6.20
2018-10-21T06:29:54.178Z,6.30
2018-10-21T06:32:23.934Z,6.30
2018-10-21T06:34:53.357Z,6.40
2018-10-21T06:37:23.467Z,6.40
2018-10-21T06:39:53.484Z,6.50
2018-10-21T06:42:23.198Z,6.50
2018-10-21T06:44:53.165Z,6.60
2018-10-21T06:47:22.370Z,6.60
2018-10-21T06:49:51.921Z,6.70
2018-10-21T06:52:21.208Z,6.80
2018-10-21T06:54:50.967Z,6.80
2018-10-21T06:57:21.189Z,6.90
2018-10-21T06:59:52.004Z,6.90
2018-10-21T07:02:25.723Z,7.00
2018-10-21T07:07:55.288Z,7.10
2018-10-21T07:10:24.806Z,7.20
2018-10-21T07:12:54.940Z,7.30
2018-10-21T07:15:29.031Z,7.30
2018-10-21T07:17:58.379Z,7.50
2018-10-21T07:20:27.644Z,7.50
2018-10-21T07:22:57.110Z,7.60
2018-10-21T07:25:26.317Z,7.70
2018-10-21T07:27:55.553Z,7.70
2018-10-21T07:30:26.128Z,7.80
2018-10-21T07:32:55.885Z,7.90
2018-10-21T07:35:25.157Z,7.90
2018-10-21T07:37:57.720Z,8.00
2018-10-21T07:40:27.026Z,8.00
2018-10-21T07:42:56.296Z,8.10
2018-10-21T07:45:26.382Z,8.10
2018-10-21T07:47:56.576Z,8.20
2018-10-21T07:50:27.489Z,8.20
2018-10-21T07:52:58.298Z,8.30
2018-10-21T07:55:27.990Z,8.40
2018-10-21T07:57:57.331Z,8.40
2018-10-21T08:00:28.098Z,8.50
2018-10-21T08:02:58.674Z,8.60
2018-10-21T08:05:39.064Z,8.60
2018-10-21T08:08:28.525Z,8.70
2018-10-21T08:10:58.102Z,8.80
2018-10-21T08:13:27.924Z,8.80
2018-10-21T08:15:58.412Z,8.90
2018-10-21T08:18:27.802Z,8.90
2018-10-21T08:20:56.973Z,9.00
2018-10-21T08:23:26.899Z,10.00
2018-10-21T08:25:56.083Z,11.70
2018-10-21T08:28:25.696Z,13.40
2018-10-21T08:30:55.092Z,15.10
2018-10-21T08:33:25.136Z,16.70
2018-10-21T08:35:54.834Z,18.40
2018-10-21T08:38:23.950Z,19.70
2018-10-21T08:40:55.780Z,21.00
2018-10-21T08:43:24.988Z,22.10
2018-10-21T08:45:54.985Z,23.10
2018-10-21T08:48:24.136Z,23.90
2018-10-21T08:50:53.662Z,24.80
2018-10-21T08:53:22.870Z,25.60
2018-10-21T08:55:52.180Z,26.30
2018-10-21T08:58:21.362Z,26.80
2018-10-21T09:00:50.600Z,27.30
2018-10-21T09:03:19.806Z,27.60
2018-10-21T09:05:49.085Z,28.10
2018-10-21T09:08:18.308Z,28.50
2018-10-21T09:10:47.556Z,28.80
2018-10-21T09:13:16.803Z,29.00
2018-10-21T09:15:45.975Z,29.30
2018-10-21T09:18:15.389Z,29.50
2018-10-21T09:21:32.300Z,29.70
2018-10-21T09:24:01.493Z,29.60
2018-10-21T09:26:31.145Z,29.50
2018-10-21T09:29:01.353Z,29.40
2018-10-21T09:31:32.081Z,29.60
2018-10-21T09:34:01.676Z,29.70
2018-10-21T09:36:30.872Z,29.60
2018-10-21T09:39:01.113Z,29.70
2018-10-21T09:41:44.899Z,29.90
2018-10-21T09:44:14.594Z,30.00
2018-10-21T09:46:43.874Z,30.00
2018-10-21T09:49:13.665Z,29.90
2018-10-21T09:51:42.892Z,29.80
2018-10-21T09:54:12.090Z,29.80
2018-10-21T09:56:41.376Z,29.80
2018-10-21T10:02:37.297Z,29.90
2018-10-21T10:05:06.959Z,30.00
2018-10-21T10:07:36.515Z,30.10
2018-10-21T10:10:07.337Z,30.10
2018-10-21T10:12:37.780Z,30.10
2018-10-21T10:15:08.220Z,30.10
2018-10-21T10:17:50.670Z,29.90
2018-10-21T10:20:19.955Z,29.80
2018-10-21T10:22:49.607Z,29.70
2018-10-21T10:25:18.919Z,29.50
2018-10-21T10:27:48.166Z,29.20
2018-10-21T10:30:17.408Z,28.80
2018-10-21T10:32:47.215Z,28.60
2018-10-21T10:35:16.506Z,28.40
2018-10-21T10:37:45.694Z,28.30
2018-10-21T10:40:14.995Z,28.10
2018-10-21T10:42:44.367Z,27.90
2018-10-21T10:45:13.601Z,27.80
2018-10-21T10:47:42.833Z,27.60
2018-10-21T10:50:12.409Z,27.20
2018-10-21T10:52:42.168Z,26.90
2018-10-21T10:55:11.581Z,26.60
2018-10-21T10:57:41.113Z,26.30
2018-10-21T11:00:11.788Z,26.10
2018-10-21T11:02:40.886Z,25.90
2018-10-21T11:05:11.195Z,25.40
2018-10-21T11:07:40.375Z,24.60
2018-10-21T11:10:10.121Z,23.80
2018-10-21T11:12:39.605Z,22.90
2018-10-21T11:15:09.663Z,22.10
2018-10-21T11:17:39.853Z,21.40
2018-10-21T11:20:10.101Z,20.70
2018-10-21T11:22:39.557Z,20.00
2018-10-21T11:25:09.666Z,19.50
2018-10-21T11:27:38.815Z,19.00
2018-10-21T11:30:08.031Z,18.70
2018-10-21T11:32:37.573Z,18.20
2018-10-21T11:35:08.393Z,17.80
2018-10-21T11:37:37.711Z,17.50
2018-10-21T11:40:07.204Z,17.20
2018-10-21T11:42:37.125Z,17.00
2018-10-21T11:45:08.147Z,16.70
2018-10-21T11:47:38.619Z,16.50
2018-10-21T11:50:08.553Z,16.40
2018-10-21T11:52:39.124Z,16.30
2018-10-21T11:55:09.140Z,16.20
2018-10-21T12:00:13.733Z,16.10
2018-10-21T12:02:43.757Z,16.00
2018-10-21T12:05:13.025Z,16.00
2018-10-21T12:07:42.791Z,16.00
2018-10-21T12:10:16.548Z,16.10
2018-10-21T12:12:46.601Z,16.20
2018-10-21T12:15:16.601Z,16.20
2018-10-21T12:17:46.235Z,16.30
2018-10-21T12:20:16.413Z,16.60
2018-10-21T12:22:47.597Z,16.90
2018-10-21T12:25:17.921Z,17.20
2018-10-21T12:27:47.503Z,17.50
2018-10-21T12:30:16.922Z,17.70
2018-10-21T12:32:46.967Z,17.90
2018-10-21T12:35:16.756Z,18.10
2018-10-21T12:37:46.686Z,18.20
2018-10-21T12:40:16.479Z,18.30
2018-10-21T12:42:47.006Z,18.40
2018-10-21T12:45:17.483Z,18.50
2018-10-21T12:47:47.597Z,18.60
2018-10-21T12:50:17.121Z,18.80
2018-10-21T12:52:46.327Z,18.80
2018-10-21T12:55:16.126Z,18.70
2018-10-21T12:57:45.223Z,18.60
2018-10-21T13:00:15.062Z,18.50
2018-10-21T13:02:45.102Z,18.30
2018-10-21T13:05:14.925Z,18.10
2018-10-21T13:07:45.029Z,17.80
2018-10-21T13:10:14.486Z,17.60
2018-10-21T13:12:43.668Z,17.30
2018-10-21T13:15:12.902Z,17.10
2018-10-21T13:17:42.535Z,16.90
2018-10-21T13:20:12.561Z,16.70
2018-10-21T13:22:41.810Z,16.50
2018-10-21T13:25:11.739Z,16.40
2018-10-21T13:27:41.741Z,16.30
2018-10-21T13:30:12.643Z,16.20
2018-10-21T13:32:42.969Z,16.10
2018-10-21T13:35:12.432Z,16.00
2018-10-21T13:37:41.663Z,16.00
2018-10-21T13:40:11.130Z,15.90
2018-10-21T13:42:40.780Z,15.90
2018-10-21T13:45:10.279Z,15.90
2018-10-21T13:47:39.585Z,15.80
2018-10-21T13:50:08.951Z,15.70
2018-10-21T13:52:40.060Z,15.60
2018-10-21T13:55:09.539Z,15.50
2018-10-21T13:57:39.473Z,15.50
2018-10-21T14:00:09.467Z,15.40
2018-10-21T14:02:39.201Z,15.30
2018-10-21T14:05:09.325Z,15.20
2018-10-21T14:07:39.901Z,15.10
2018-10-21T14:10:10.568Z,15.00
2018-10-21T14:12:42.521Z,14.90
2018-10-21T14:15:13.379Z,14.80
2018-10-21T14:17:42.589Z,14.70
2018-10-21T14:20:15.149Z,14.70
2018-10-21T14:22:45.180Z,14.60
2018-10-21T14:25:14.812Z,14.50
2018-10-21T14:27:44.204Z,14.40
2018-10-21T14:30:14.611Z,14.30
2018-10-21T14:32:43.776Z,14.30
2018-10-21T14:35:13.456Z,14.20
2018-10-21T14:37:42.756Z,14.10
2018-10-21T14:40:13.426Z,14.00
2018-10-21T14:42:42.975Z,13.90
2018-10-21T14:45:13.069Z,13.70
2018-10-21T14:47:42.937Z,13.60
2018-10-21T14:50:12.847Z,13.50
2018-10-21T14:52:42.154Z,13.50
2018-10-21T14:55:12.453Z,13.40
2018-10-21T14:57:46.431Z,13.40
2018-10-21T15:00:16.824Z,13.30
2018-10-21T15:02:48.079Z,13.10
2018-10-21T15:05:18.520Z,13.00
2018-10-21T15:07:51.693Z,12.90
2018-10-21T15:10:22.410Z,12.70
2018-10-21T15:12:51.542Z,12.60
2018-10-21T15:15:20.728Z,12.50
2018-10-21T15:17:50.227Z,12.40
2018-10-21T15:20:19.843Z,12.40
2018-10-21T15:22:49.803Z,12.20
2018-10-21T15:25:20.049Z,12.10
2018-10-21T15:27:51.255Z,12.00
2018-10-21T15:30:27.387Z,12.00
2018-10-21T15:32:56.705Z,11.80
2018-10-21T15:35:26.829Z,11.70
2018-10-21T15:37:56.308Z,11.70
2018-10-21T15:40:26.042Z,11.60
2018-10-21T15:42:55.835Z,11.50
2018-10-21T15:45:25.134Z,11.40
2018-10-21T15:47:54.383Z,11.30
2018-10-21T15:50:23.706Z,11.20
2018-10-21T15:52:52.863Z,11.20
2018-10-21T15:55:22.159Z,11.10
2018-10-21T15:57:51.433Z,11.00
2018-10-21T16:00:21.033Z,10.90
2018-10-21T16:02:50.387Z,10.90
2018-10-21T16:05:19.682Z,10.80
2018-10-21T16:07:48.896Z,10.70
2018-10-21T16:10:18.213Z,10.60
2018-10-21T16:12:47.441Z,10.50
2018-10-21T16:15:17.108Z,10.50
2018-10-21T16:17:47.405Z,10.40
2018-10-21T16:20:16.913Z,10.30
2018-10-21T16:22:46.431Z,10.30
2018-10-21T16:25:16.258Z,10.20
2018-10-21T16:27:45.598Z,10.20
2018-10-21T16:30:16.202Z,10.10
2018-10-21T16:32:45.695Z,10.00
2018-10-21T16:35:15.483Z,10.00
2018-10-21T16:37:45.494Z,9.90
2018-10-21T16:40:16.019Z,9.80
2018-10-21T16:42:48.696Z,9.70
2018-10-21T16:45:19.379Z,9.70
2018-10-21T16:47:49.456Z,9.60
2018-10-21T16:50:19.359Z,9.60
2018-10-21T16:52:49.039Z,9.50
2018-10-21T16:55:18.758Z,9.50
2018-10-21T16:57:47.918Z,9.40
2018-10-21T17:00:18.392Z,9.40
2018-10-21T17:02:49.867Z,9.30
2018-10-21T17:05:19.091Z,9.30
2018-10-21T17:07:49.931Z,9.20
2018-10-21T17:10:19.725Z,9.20
2018-10-21T17:12:49.447Z,9.10
2018-10-21T17:15:19.636Z,9.10
2018-10-21T17:17:49.427Z,9.00
2018-10-21T17:20:19.079Z,9.00
2018-10-21T17:22:49.609Z,9.00
2018-10-21T17:25:18.893Z,9.00
2018-10-21T17:27:48.606Z,9.00
2018-10-21T17:30:18.713Z,9.00
2018-10-21T17:32:48.056Z,8.90
2018-10-21T17:35:18.000Z,8.90
2018-10-21T17:37:48.899Z,8.90
2018-10-21T17:40:18.790Z,8.90
2018-10-21T17:42:49.959Z,8.80
2018-10-21T17:45:19.313Z,8.80
2018-10-21T17:47:49.349Z,8.80
2018-10-21T17:50:18.565Z,8.80
2018-10-21T17:52:49.150Z,8.80
2018-10-21T17:55:18.536Z,8.80
2018-10-21T17:57:47.997Z,8.80
2018-10-21T18:00:20.151Z,8.80
2018-10-21T18:02:51.527Z,8.80
2018-10-21T18:05:22.583Z,8.70
2018-10-21T18:07:52.811Z,8.70
2018-10-21T18:10:23.229Z,8.70
2018-10-21T18:12:52.476Z,8.70
2018-10-21T18:15:21.691Z,8.60
2018-10-21T18:17:56.921Z,8.60
2018-10-21T18:20:26.715Z,8.60
2018-10-21T18:22:56.820Z,8.60
2018-10-21T18:25:26.369Z,8.50
2018-10-21T18:27:57.510Z,8.50
2018-10-21T18:30:27.855Z,8.50
2018-10-21T18:32:58.960Z,8.40
2018-10-21T18:35:33.112Z,8.40
2018-10-21T18:38:02.690Z,8.40
2018-10-21T18:40:32.627Z,8.40
2018-10-21T18:43:02.582Z,8.40
2018-10-21T18:45:39.191Z,8.40
2018-10-21T18:48:10.271Z,8.30
2018-10-21T18:50:39.522Z,8.30
2018-10-21T18:53:08.848Z,8.30
2018-10-21T18:55:38.523Z,8.30
2018-10-21T18:58:07.819Z,8.20
2018-10-21T19:00:37.823Z,8.20
2018-10-21T19:03:07.067Z,8.20
2018-10-21T19:05:36.383Z,8.20
2018-10-21T19:08:07.153Z,8.10
2018-10-21T19:10:37.307Z,8.10
2018-10-21T19:13:06.588Z,8.10
2018-10-21T19:15:36.375Z,8.10
2018-10-21T19:18:06.975Z,8.00
2018-10-21T19:20:36.361Z,8.00
2018-10-21T19:23:06.011Z,8.00
2018-10-21T19:25:35.379Z,8.00
2018-10-21T19:28:06.765Z,8.00
2018-10-21T19:30:36.925Z,7.90
2018-10-21T19:33:07.781Z,7.90
2018-10-21T19:35:37.729Z,7.90
2018-10-21T19:38:07.694Z,7.90
2018-10-21T19:40:38.295Z,7.80
2018-10-21T19:43:09.472Z,7.80
2018-10-21T19:45:38.818Z,7.80
2018-10-21T19:48:08.541Z,7.80
2018-10-21T19:50:39.231Z,7.70
2018-10-21T19:53:08.707Z,7.80
2018-10-21T19:55:38.208Z,7.70
2018-10-21T19:58:08.727Z,7.70
2018-10-21T20:00:38.449Z,7.70
2018-10-21T20:03:09.599Z,7.70
2018-10-21T20:05:39.709Z,7.70
2018-10-21T20:08:09.961Z,7.60
2018-10-21T20:10:39.827Z,7.60
2018-10-21T20:13:09.101Z,7.60
2018-10-21T20:15:39.395Z,7.60
2018-10-21T20:18:10.022Z,7.60
2018-10-21T20:20:41.543Z,7.60
2018-10-21T20:24:41.785Z,7.50
2018-10-21T20:27:13.000Z,7.60
2018-10-21T20:29:42.341Z,7.50
2018-10-21T20:32:12.873Z,7.50
2018-10-21T20:34:43.511Z,7.50
2018-10-21T20:37:14.807Z,7.50
2018-10-21T20:39:44.102Z,7.40
2018-10-21T20:42:13.539Z,7.40
2018-10-21T20:44:44.012Z,7.30
2018-10-21T20:47:13.566Z,7.30
2018-10-21T20:49:42.769Z,7.30
2018-10-21T20:52:12.746Z,7.30
2018-10-21T20:54:46.600Z,7.20
2018-10-21T20:57:16.419Z,7.20
2018-10-21T20:59:46.741Z,7.20
2018-10-21T21:02:16.685Z,7.20
2018-10-21T21:04:47.140Z,7.20
2018-10-21T21:07:16.439Z,7.20
2018-10-21T21:09:45.697Z,7.20
2018-10-21T21:12:15.051Z,7.20
2018-10-21T21:14:44.639Z,7.10
2018-10-21T21:17:13.873Z,7.10
2018-10-21T21:19:43.065Z,7.10
2018-10-21T21:22:13.092Z,7.10
2018-10-21T21:24:42.634Z,7.10
2018-10-21T21:27:12.722Z,7.10
2018-10-21T21:29:42.046Z,7.10
2018-10-21T21:32:11.615Z,7.00
2018-10-21T21:34:41.332Z,7.00
2018-10-21T21:37:10.558Z,7.00
2018-10-21T21:39:40.278Z,7.00
2018-10-21T21:42:09.984Z,6.90
2018-10-21T21:44:39.321Z,7.00
2018-10-21T21:47:09.520Z,7.00
2018-10-21T21:49:39.691Z,6.90
2018-10-21T21:52:09.939Z,6.90
2018-10-21T21:54:39.485Z,6.90
2018-10-21T21:57:10.199Z,6.90
2018-10-21T21:59:47.513Z,6.90
2018-10-21T22:02:17.534Z,6.90
2018-10-21T22:04:47.616Z,6.90
2018-10-21T22:07:18.796Z,6.90
2018-10-21T22:09:53.837Z,6.90
2018-10-21T22:12:23.542Z,6.90
2018-10-21T22:14:56.917Z,6.90
2018-10-21T22:17:29.098Z,7.00
2018-10-21T22:19:58.482Z,7.00
2018-10-21T22:22:31.093Z,7.00
2018-10-21T22:25:03.826Z,7.00
2018-10-21T22:27:37.843Z,7.00
2018-10-21T22:30:08.906Z,7.00
2018-10-21T22:32:38.619Z,7.10
2018-10-21T22:35:09.372Z,7.10
2018-10-21T22:37:39.432Z,7.10
2018-10-21T22:40:09.270Z,7.10
2018-10-21T22:42:40.408Z,7.10
2018-10-21T22:45:13.431Z,7.20
2018-10-21T22:47:43.380Z,7.20
2018-10-21T22:50:13.355Z,7.10
2018-10-21T22:52:45.010Z,7.10
2018-10-21T22:55:14.483Z,7.20
2018-10-21T22:57:46.385Z,7.10
2018-10-21T23:00:17.241Z,7.10
2018-10-21T23:02:50.742Z,7.10
2018-10-21T23:05:23.860Z,7.10
2018-10-21T23:07:54.058Z,7.10
2018-10-21T23:10:23.542Z,7.10
2018-10-21T23:12:52.951Z,7.00
2018-10-21T23:16:25.696Z,7.10
2018-10-21T23:19:04.043Z,7.10
2018-10-21T23:21:34.248Z,7.00
2018-10-21T23:24:03.873Z,7.00
2018-10-21T23:26:33.057Z,7.00
2018-10-21T23:29:05.409Z,7.00
2018-10-21T23:31:35.051Z,7.00
2018-10-21T23:34:06.813Z,6.90
2018-10-21T23:36:38.998Z,6.90
2018-10-21T23:39:09.182Z,6.90
2018-10-21T23:41:39.923Z,6.80
2018-10-21T23:44:12.720Z,6.90
2018-10-21T23:46:43.763Z,6.90
2018-10-21T23:49:14.378Z,6.90
2018-10-21T23:51:43.577Z,6.90
2018-10-21T23:54:13.156Z,6.90
2018-10-21T23:56:42.261Z,6.80
2018-10-21T23:59:12.982Z,6.80
